Airfield :
LOGIN :

Register | Disclaimer

   EN    FR    IT 

 










Legend :    VFR   Marginal VFR   IFR   Intensive IFR   Very Intensive IFR
Visi :
Ceiling :
>= 8 km
>= 3000ft
5 to 8 km
1000 to 3000 ft
1500m to 5 km
500 to 1000 ft
800 to 1500m
200 to 500 ft
< 800m
< 200 ft
Symbols :   Thunderstorms  Fog  Heavy snow  Heavy precipitations  Wind > 20 kt
SIGMETs :     Misc.  Thunderstorms  Icing  Turbulence  Mountain Waves  Volcanic Ashes







- Airport Elevation : 141 ft
- IATA code : SKS


EKSP - Srydstrup Vojens

CURRENT METAR :
  • 160350Z 30012KT 9999 FEW009 BKN012 BKN015 13/12 Q1013

EXPIRED METARs :
  • 160320Z 30011KT 270V330 9999 FEW009 BKN012 BKN015 13/12 Q1013
  • 160250Z 30010KT 9999 SCT012 BKN015 13/12 Q1013
  • 160220Z 29008KT 9999 BKN012 BKN014 13/12 Q1013
  • 160150Z 29010KT 9999 BKN012 BKN014 13/11 Q1013
  • 160120Z 30009KT 9999 BKN012 13/11 Q1013
  • 160050Z 30008KT 9999 OVC011 13/11 Q1013

TAF TAF EKSP
Valid from the 16 at 03:00 until the 17 at 03:00 UTC


160223Z 1603/1703 29012KT 9999 BKN015
TEMPO 1603/1607 BKN006
TEMPO 1700/1703 6000 BKN006
No reported NOTAMs for that airfield.



MET'MAP, your aeronautical weather chart ! - Copyright ORBIFLY December 2007 - Disclaimer

ORBIFLY MET'MAP TEAM :

Programming & Development : Alexandra Zaïnal
Concept & Development : Baudouin d'Aumeries
Co-Development & Prog : Marc-Olivier Méhu
Technical & hardware support : Manuel Goepfert

Contact : metmap@orbifly.com




SOURCES & CREDITS :

   NOAA